Time;durP1;ratioP1;P1;durP2;ratioP2;P2;SDS_P1;SDS_P2;PMS_P1;PMS_P2;Temp;Humidity;BMP_temperature;BMP_pressure;BME280_temperature;BME280_humidity;BME280_pressure;Samples;Min_cycle;Max_cycle;Signal;HPM_P1;HPM_P2
2021/11/08 00:00:29;;;;;;;;;;;;;;;;;;5066206;28;19908;-57
2021/11/08 00:02:56;;;;;;;;;;;;;;;;;;5066483;28;19924;-57
2021/11/08 00:05:24;;;;;;;;;;;;;;;;;;5066211;28;19919;-57
2021/11/08 00:07:54;;;;;;;;;;;;;;;;;;5066565;28;19911;-57
2021/11/08 00:10:27;;;;;;;;;;;;;;;;;;5065998;28;19942;-56
2021/11/08 00:12:53;;;;;;;;;;;;;;;;;;5065914;28;19912;-57
2021/11/08 00:15:25;;;;;;;;;;;;;;;;;;5066079;28;19911;-57
2021/11/08 00:18:38;;;;;;;;;;;;;;;;;;5066338;28;19962;-57
2021/11/08 00:20:46;;;;;;;;;;;;;;;;;;5064839;28;19912;-57
2021/11/08 00:23:13;;;;;;;;;;;;;;;;;;5065800;28;19917;-57
2021/11/08 00:25:41;;;;;;;;;;;;;;;;;;5065772;28;19908;-57
2021/11/08 00:28:08;;;;;;;;;;;;;;;;;;5066208;28;19908;-57
2021/11/08 00:30:34;;;;;;;;;;;;;;;;;;5065137;28;19991;-56
2021/11/08 00:32:59;;;;;;;;;;;;;;;;;;5065775;28;19999;-56
2021/11/08 00:35:25;;;;;;;;;;;;;;;;;;5065304;28;19938;-56
2021/11/08 00:37:52;;;;;;;;;;;;;;;;;;5065861;28;19905;-56
2021/11/08 00:40:18;;;;;;;;;;;;;;;;;;5065816;28;19908;-57
2021/11/08 00:42:44;;;;;;;;;;;;;;;;;;5063981;28;20432;-56
2021/11/08 00:45:11;;;;;;;;;;;;;;;;;;5065682;28;19904;-57
2021/11/08 00:47:36;;;;;;;;;;;;;;;;;;5074423;28;19914;-56
2021/11/08 00:50:03;;;;;;;;;;;;;;;;;;5086292;28;19994;-57
2021/11/08 00:52:29;;;;;;;;;;;;;;;;;;5084036;28;19911;-57
2021/11/08 00:54:58;;;;;;;;;;;;;;;;;;5084818;28;20378;-57
2021/11/08 00:57:26;;;;;;;;;;;;;;;;;;5071480;28;20292;-56
2021/11/08 00:59:53;;;;;;;;;;;;;;;;;;5065149;28;19913;-57
2021/11/08 01:02:23;;;;;;;;;;;;;;;;;;5065413;28;20260;-57
2021/11/08 01:04:50;;;;;;;;;;;;;;;;;;5063309;28;20386;-57
2021/11/08 01:07:16;;;;;;;;;;;;;;;;;;5064608;28;20007;-56
2021/11/08 01:09:42;;;;;;;;;;;;;;;;;;5065141;28;20109;-57
2021/11/08 01:12:10;;;;;;;;;;;;;;;;;;5064736;28;20354;-57
2021/11/08 01:14:36;;;;;;;;;;;;;;;;;;5063645;28;19958;-57
2021/11/08 01:17:01;;;;;;;;;;;;;;;;;;5065106;28;19955;-56
2021/11/08 01:19:27;;;;;;;;;;;;;;;;;;5072719;28;19919;-57
2021/11/08 01:22:02;;;;;;;;;;;;;;;;;;5072320;28;20054;-57
2021/11/08 01:24:29;;;;;;;;;;;;;;;;;;5085713;28;19912;-57
2021/11/08 01:26:56;;;;;;;;;;;;;;;;;;5085734;28;20015;-57
2021/11/08 01:29:22;;;;;;;;;;;;;;;;;;5085591;28;19912;-57
2021/11/08 01:31:49;;;;;;;;;;;;;;;;;;5085635;28;19908;-56
2021/11/08 01:34:15;;;;;;;;;;;;;;;;;;5085069;28;19908;-55
2021/11/08 01:36:48;;;;;;;;;;;;;;;;;;5085652;28;19908;-57
2021/11/08 01:39:19;;;;;;;;;;;;;;;;;;5085310;28;20114;-56
2021/11/08 01:41:46;;;;;;;;;;;;;;;;;;5085565;28;20378;-57
2021/11/08 01:44:14;;;;;;;;;;;;;;;;;;5085770;28;19988;-57
2021/11/08 01:46:41;;;;;;;;;;;;;;;;;;5085515;28;19965;-56
2021/11/08 01:49:08;;;;;;;;;;;;;;;;;;5085575;28;19908;-57
2021/11/08 01:51:35;;;;;;;;;;;;;;;;;;5085687;28;19992;-57
2021/11/08 01:54:01;;;;;;;;;;;;;;;;;;5085894;28;19910;-57
2021/11/08 01:56:27;;;;;;;;;;;;;;;;;;5085155;28;19908;-57
2021/11/08 01:58:53;;;;;;;;;;;;;;;;;;5085402;28;19939;-57
2021/11/08 02:01:19;;;;;;;;;;;;;;;;;;5084908;28;19911;-57
2021/11/08 02:03:46;;;;;;;;;;;;;;;;;;5085119;28;19908;-57
2021/11/08 02:06:13;;;;;;;;;;;;;;;;;;5084885;28;20283;-57
2021/11/08 02:08:40;;;;;;;;;;;;;;;;;;5085736;28;19915;-57
2021/11/08 02:11:07;;;;;;;;;;;;;;;;;;5085124;28;19941;-57
2021/11/08 02:13:35;;;;;;;;;;;;;;;;;;5085818;28;20464;-56
2021/11/08 02:16:02;;;;;;;;;;;;;;;;;;5085822;28;19959;-57
2021/11/08 02:18:28;;;;;;;;;;;;;;;;;;5084659;28;20160;-57
2021/11/08 02:20:56;;;;;;;;;;;;;;;;;;5084610;28;19904;-57
2021/11/08 02:23:24;;;;;;;;;;;;;;;;;;5084740;28;20292;-57
2021/11/08 02:25:54;;;;;;;;;;;;;;;;;;5085167;28;20340;-56
2021/11/08 02:28:20;;;;;;;;;;;;;;;;;;5084855;28;19904;-56
2021/11/08 02:30:46;;;;;;;;;;;;;;;;;;5084883;28;20019;-56
2021/11/08 02:33:12;;;;;;;;;;;;;;;;;;5083835;28;19911;-57
2021/11/08 02:35:38;;;;;;;;;;;;;;;;;;5084803;28;20394;-57
2021/11/08 02:38:04;;;;;;;;;;;;;;;;;;5085773;28;20273;-56
2021/11/08 02:40:30;;;;;;;;;;;;;;;;;;5085352;28;19949;-57
2021/11/08 02:42:57;;;;;;;;;;;;;;;;;;5084836;28;19987;-57
2021/11/08 02:45:24;;;;;;;;;;;;;;;;;;5084573;28;19998;-57
2021/11/08 02:47:50;;;;;;;;;;;;;;;;;;5084687;28;19904;-57
2021/11/08 02:50:16;;;;;;;;;;;;;;;;;;5084402;28;19995;-57
2021/11/08 02:52:43;;;;;;;;;;;;;;;;;;5083632;28;20493;-57
2021/11/08 02:55:09;;;;;;;;;;;;;;;;;;5084794;28;20294;-57
2021/11/08 02:57:37;;;;;;;;;;;;;;;;;;5084954;28;19923;-57
2021/11/08 03:00:02;;;;;;;;;;;;;;;;;;5085520;28;19904;-57
2021/11/08 03:02:29;;;;;;;;;;;;;;;;;;5084196;28;19979;-57
2021/11/08 03:04:56;;;;;;;;;;;;;;;;;;5084727;28;19908;-56
2021/11/08 03:07:26;;;;;;;;;;;;;;;;;;5084473;28;19998;-57
2021/11/08 03:09:54;;;;;;;;;;;;;;;;;;5083380;28;20389;-57
2021/11/08 03:12:26;;;;;;;;;;;;;;;;;;5084436;28;19908;-57
2021/11/08 03:17:29;;;;;;;;;;;;;;;;;;5084105;28;19919;-56
2021/11/08 03:19:55;;;;;;;;;;;;;;;;;;5087968;28;19912;-57
2021/11/08 03:22:26;;;;;;;;;;;;;;;;;;5087750;28;19900;-57
2021/11/08 03:24:58;;;;;;;;;;;;;;;;;;5088172;28;19918;-57
2021/11/08 03:29:51;;;;;;;;;;;;;;;;;;5087862;28;20350;-57
2021/11/08 03:32:18;;;;;;;;;;;;;;;;;;5087839;28;19985;-56
2021/11/08 03:34:52;;;;;;;;;;;;;;;;;;5087798;28;20127;-57
2021/11/08 03:37:18;;;;;;;;;;;;;;;;;;5087624;28;19930;-57
2021/11/08 03:39:44;;;;;;;;;;;;;;;;;;5088268;28;19914;-56
2021/11/08 03:42:11;;;;;;;;;;;;;;;;;;5087961;28;19904;-56
2021/11/08 03:44:37;;;;;;;;;;;;;;;;;;5087553;28;19932;-57
2021/11/08 03:47:03;;;;;;;;;;;;;;;;;;5088570;28;19915;-57
2021/11/08 03:49:30;;;;;;;;;;;;;;;;;;5087370;28;19915;-57
2021/11/08 03:51:56;;;;;;;;;;;;;;;;;;5087797;28;19911;-57
2021/11/08 03:54:22;;;;;;;;;;;;;;;;;;5087614;28;20282;-57
2021/11/08 03:56:48;;;;;;;;;;;;;;;;;;5087636;28;19915;-57
2021/11/08 03:59:15;;;;;;;;;;;;;;;;;;5087386;28;19912;-57
2021/11/08 04:01:41;;;;;;;;;;;;;;;;;;5087553;28;19900;-57
2021/11/08 04:04:07;;;;;;;;;;;;;;;;;;5087512;28;19950;-57
2021/11/08 04:06:33;;;;;;;;;;;;;;;;;;5088143;28;20426;-57
2021/11/08 04:08:59;;;;;;;;;;;;;;;;;;5087863;28;20323;-57
2021/11/08 04:11:27;;;;;;;;;;;;;;;;;;5087178;28;20449;-57
2021/11/08 04:13:53;;;;;;;;;;;;;;;;;;5087263;28;19936;-57
2021/11/08 04:16:20;;;;;;;;;;;;;;;;;;5087326;28;20310;-56
2021/11/08 04:18:51;;;;;;;;;;;;;;;;;;5087131;28;20286;-57
2021/11/08 04:21:18;;;;;;;;;;;;;;;;;;5086256;28;20344;-57
2021/11/08 04:23:44;;;;;;;;;;;;;;;;;;5087234;28;20378;-57
2021/11/08 04:26:16;;;;;;;;;;;;;;;;;;5086971;28;19911;-57
2021/11/08 04:28:49;;;;;;;;;;;;;;;;;;5086587;28;19920;-57
2021/11/08 04:31:16;;;;;;;;;;;;;;;;;;5085941;28;19915;-57
2021/11/08 04:41:50;;;;;;;;;;;;;;;;;;5086825;28;20349;-57
2021/11/08 05:22:46;;;;;;;;;;;;;;;;;;5084030;28;20385;-57
2021/11/08 05:30:22;;;;;;;;;;;;;;;;;;5085610;28;20383;-56
2021/11/08 05:32:51;;;;;;;;;;;;;;;;;;5085873;28;20467;-57
2021/11/08 05:35:18;;;;;;;;;;;;;;;;;;5085525;28;19904;-57
2021/11/08 05:37:45;;;;;;;;;;;;;;;;;;5085912;28;19935;-56
2021/11/08 05:40:15;;;;;;;;;;;;;;;;;;5085436;28;19912;-57
2021/11/08 05:42:41;;;;;;;;;;;;;;;;;;5085939;28;19904;-57
2021/11/08 05:45:09;;;;;;;;;;;;;;;;;;5085989;28;19911;-57
2021/11/08 05:47:35;;;;;;;;;;;;;;;;;;5085965;28;19908;-57
2021/11/08 05:50:02;;;;;;;;;;;;;;;;;;5086378;28;19904;-57
2021/11/08 05:52:29;;;;;;;;;;;;;;;;;;5085219;28;19904;-57
2021/11/08 05:54:55;;;;;;;;;;;;;;;;;;5085537;28;20438;-57
2021/11/08 06:49:25;;;;;;;;;;;;;;;;;;5085747;28;20408;-56
2021/11/08 06:51:51;;;;;;;;;;;;;;;;;;5064895;28;19913;-57
2021/11/08 06:54:18;;;;;;;;;;;;;;;;;;5067826;28;19904;-58
2021/11/08 06:56:54;;;;;;;;;;;;;;;;;;5068405;28;19912;-57
2021/11/08 06:59:20;;;;;;;;;;;;;;;;;;5068314;28;20011;-56
2021/11/08 07:01:48;;;;;;;;;;;;;;;;;;5068345;28;19961;-57
2021/11/08 07:04:15;;;;;;;;;;;;;;;;;;5068040;28;19904;-56
2021/11/08 07:06:40;;;;;;;;;;;;;;;;;;5068188;28;19908;-56
2021/11/08 07:09:07;;;;;;;;;;;;;;;;;;5068044;28;19910;-57
2021/11/08 07:11:34;;;;;;;;;;;;;;;;;;5068431;28;19908;-57
2021/11/08 07:13:59;;;;;;;;;;;;;;;;;;5067474;28;19915;-57
2021/11/08 07:16:25;;;;;;;;;;;;;;;;;;5068216;28;19912;-57
2021/11/08 07:18:51;;;;;;;;;;;;;;;;;;5067996;28;20379;-57
2021/11/08 07:21:17;;;;;;;;;;;;;;;;;;5071583;28;19934;-57
2021/11/08 07:23:44;;;;;;;;;;;;;;;;;;5074517;28;20411;-57
2021/11/08 07:26:11;;;;;;;;;;;;;;;;;;5088242;28;19912;-57
2021/11/08 07:28:37;;;;;;;;;;;;;;;;;;5088262;28;20279;-57
2021/11/08 07:31:03;;;;;;;;;;;;;;;;;;5087896;28;19904;-57
2021/11/08 07:33:31;;;;;;;;;;;;;;;;;;5087432;28;19908;-56
2021/11/08 07:35:57;;;;;;;;;;;;;;;;;;5089661;28;19908;-56
2021/11/08 07:38:23;;;;;;;;;;;;;;;;;;5070305;28;19954;-56
2021/11/08 07:40:49;;;;;;;;;;;;;;;;;;5067864;28;19908;-57
2021/11/08 07:43:16;;;;;;;;;;;;;;;;;;5067199;28;20272;-57
2021/11/08 07:45:42;;;;;;;;;;;;;;;;;;5066061;28;19904;-57
2021/11/08 07:48:08;;;;;;;;;;;;;;;;;;5067549;28;19970;-57
2021/11/08 07:50:35;;;;;;;;;;;;;;;;;;5067206;28;19940;-57
2021/11/08 07:53:01;;;;;;;;;;;;;;;;;;5087004;28;19915;-57
2021/11/08 07:55:28;;;;;;;;;;;;;;;;;;5087850;28;19912;-58
2021/11/08 07:57:54;;;;;;;;;;;;;;;;;;5067024;28;19908;-57
2021/11/08 08:00:20;;;;;;;;;;;;;;;;;;5066711;28;19943;-58
2021/11/08 08:02:46;;;;;;;;;;;;;;;;;;5067058;28;19959;-57
2021/11/08 08:05:13;;;;;;;;;;;;;;;;;;5066795;28;19904;-56
2021/11/08 08:07:39;;;;;;;;;;;;;;;;;;5067082;28;19904;-57
2021/11/08 08:10:05;;;;;;;;;;;;;;;;;;5067504;28;19916;-57
2021/11/08 08:12:31;;;;;;;;;;;;;;;;;;5066684;28;19916;-57
2021/11/08 08:14:57;;;;;;;;;;;;;;;;;;5066685;28;20393;-57
2021/11/08 08:17:24;;;;;;;;;;;;;;;;;;5066343;28;19991;-57
2021/11/08 08:19:50;;;;;;;;;;;;;;;;;;5066298;28;20143;-57
2021/11/08 08:22:16;;;;;;;;;;;;;;;;;;5066401;28;20014;-57
2021/11/08 08:24:41;;;;;;;;;;;;;;;;;;5066752;28;19913;-57
2021/11/08 08:27:07;;;;;;;;;;;;;;;;;;5066684;28;20406;-57
2021/11/08 08:29:33;;;;;;;;;;;;;;;;;;5066690;28;19908;-57
2021/11/08 08:32:00;;;;;;;;;;;;;;;;;;5066346;28;19900;-57
2021/11/08 08:34:26;;;;;;;;;;;;;;;;;;5066470;28;20321;-57
2021/11/08 08:36:53;;;;;;;;;;;;;;;;;;5066713;28;20335;-57
2021/11/08 08:39:20;;;;;;;;;;;;;;;;;;5064957;28;19950;-57
2021/11/08 08:41:47;;;;;;;;;;;;;;;;;;5066478;28;19908;-57
2021/11/08 08:44:13;;;;;;;;;;;;;;;;;;5065978;28;19931;-57
2021/11/08 08:46:39;;;;;;;;;;;;;;;;;;5066136;28;19939;-57
2021/11/08 08:49:05;;;;;;;;;;;;;;;;;;5066508;28;20379;-57
2021/11/08 08:51:31;;;;;;;;;;;;;;;;;;5065554;28;20359;-57
2021/11/08 08:53:57;;;;;;;;;;;;;;;;;;5066101;28;19908;-57
2021/11/08 08:56:23;;;;;;;;;;;;;;;;;;5066270;28;19961;-57
2021/11/08 08:58:49;;;;;;;;;;;;;;;;;;5065948;28;20342;-57
2021/11/08 09:01:15;;;;;;;;;;;;;;;;;;5065511;28;19905;-57
2021/11/08 09:03:41;;;;;;;;;;;;;;;;;;5066014;28;19983;-57
2021/11/08 09:06:08;;;;;;;;;;;;;;;;;;5066507;28;19909;-58
2021/11/08 09:08:37;;;;;;;;;;;;;;;;;;5066114;28;19916;-57
2021/11/08 09:11:03;;;;;;;;;;;;;;;;;;5066409;28;20428;-57
2021/11/08 09:13:29;;;;;;;;;;;;;;;;;;5065940;28;19904;-57
2021/11/08 09:15:55;;;;;;;;;;;;;;;;;;5064902;28;19961;-57
2021/11/08 09:18:21;;;;;;;;;;;;;;;;;;5065373;28;20344;-57
2021/11/08 09:20:49;;;;;;;;;;;;;;;;;;5064973;28;19904;-57
2021/11/08 09:23:16;;;;;;;;;;;;;;;;;;5065196;28;19958;-57
2021/11/08 09:25:43;;;;;;;;;;;;;;;;;;5065670;28;19943;-57
2021/11/08 09:28:09;;;;;;;;;;;;;;;;;;5065482;28;20387;-57
2021/11/08 09:30:35;;;;;;;;;;;;;;;;;;5065736;28;19904;-57
2021/11/08 09:33:01;;;;;;;;;;;;;;;;;;5065413;28;19937;-58
2021/11/08 09:35:37;;;;;;;;;;;;;;;;;;5065050;28;19909;-57
2021/11/08 09:38:05;;;;;;;;;;;;;;;;;;5065932;28;19911;-57
2021/11/08 09:40:31;;;;;;;;;;;;;;;;;;5065001;28;19908;-57
2021/11/08 09:42:57;;;;;;;;;;;;;;;;;;5065344;28;19947;-56
2021/11/08 09:45:23;;;;;;;;;;;;;;;;;;5064791;28;19911;-57
2021/11/08 09:47:49;;;;;;;;;;;;;;;;;;5065296;28;20357;-58
2021/11/08 09:50:14;;;;;;;;;;;;;;;;;;5078864;28;20332;-57
2021/11/08 09:52:40;;;;;;;;;;;;;;;;;;5086065;28;20025;-57
2021/11/08 09:55:07;;;;;;;;;;;;;;;;;;5068850;28;19909;-57
2021/11/08 09:57:33;;;;;;;;;;;;;;;;;;5064983;28;20404;-57
2021/11/08 09:59:58;;;;;;;;;;;;;;;;;;5065214;28;19943;-57
2021/11/08 10:02:24;;;;;;;;;;;;;;;;;;5064497;28;19912;-57
2021/11/08 10:04:50;;;;;;;;;;;;;;;;;;5064759;28;19916;-57
2021/11/08 10:07:16;;;;;;;;;;;;;;;;;;5065407;28;19912;-57
2021/11/08 10:09:42;;;;;;;;;;;;;;;;;;5065059;28;20413;-57
2021/11/08 10:12:09;;;;;;;;;;;;;;;;;;5064822;28;19904;-57
2021/11/08 10:14:35;;;;;;;;;;;;;;;;;;5063060;28;20387;-57
2021/11/08 10:17:01;;;;;;;;;;;;;;;;;;5064925;28;19954;-57
2021/11/08 10:19:27;;;;;;;;;;;;;;;;;;5064392;28;19909;-57
2021/11/08 10:21:53;;;;;;;;;;;;;;;;;;5065037;28;19904;-57
2021/11/08 10:24:19;;;;;;;;;;;;;;;;;;5065196;28;20299;-58
2021/11/08 10:26:45;;;;;;;;;;;;;;;;;;5066155;28;19999;-58
2021/11/08 10:29:12;;;;;;;;;;;;;;;;;;5068857;28;20496;-57
2021/11/08 10:31:38;;;;;;;;;;;;;;;;;;5068990;28;19995;-58
2021/11/08 10:34:05;;;;;;;;;;;;;;;;;;5068929;28;19904;-57
2021/11/08 10:36:30;;;;;;;;;;;;;;;;;;5068273;28;19919;-57
2021/11/08 10:38:59;;;;;;;;;;;;;;;;;;5069227;28;20648;-58
2021/11/08 10:41:25;;;;;;;;;;;;;;;;;;5068403;28;19904;-57
2021/11/08 10:43:53;;;;;;;;;;;;;;;;;;5068747;28;19958;-57
2021/11/08 10:46:20;;;;;;;;;;;;;;;;;;5069002;28;19908;-58
2021/11/08 10:48:47;;;;;;;;;;;;;;;;;;5069382;28;19911;-57
2021/11/08 10:51:13;;;;;;;;;;;;;;;;;;5068169;28;20367;-58
2021/11/08 10:53:39;;;;;;;;;;;;;;;;;;5068362;28;19915;-57
2021/11/08 10:56:10;;;;;;;;;;;;;;;;;;5068532;28;20002;-56
2021/11/08 10:58:36;;;;;;;;;;;;;;;;;;5067866;28;19904;-56
2021/11/08 11:01:02;;;;;;;;;;;;;;;;;;5068119;28;20350;-56
2021/11/08 11:03:28;;;;;;;;;;;;;;;;;;5067908;28;19974;-56
2021/11/08 11:05:54;;;;;;;;;;;;;;;;;;5067990;28;20376;-56
2021/11/08 11:08:20;;;;;;;;;;;;;;;;;;5068184;28;19927;-57
2021/11/08 11:10:46;;;;;;;;;;;;;;;;;;5069029;28;19912;-56
2021/11/08 11:13:14;;;;;;;;;;;;;;;;;;5067959;28;19915;-57
2021/11/08 11:15:43;;;;;;;;;;;;;;;;;;5067779;28;19995;-56
2021/11/08 11:18:11;;;;;;;;;;;;;;;;;;5068097;28;20304;-56
2021/11/08 11:20:39;;;;;;;;;;;;;;;;;;5067195;28;19962;-56
2021/11/08 11:23:10;;;;;;;;;;;;;;;;;;5068279;28;20326;-56
2021/11/08 11:25:37;;;;;;;;;;;;;;;;;;5067531;28;19908;-56
2021/11/08 11:28:03;;;;;;;;;;;;;;;;;;5067573;28;19909;-54
2021/11/08 11:30:28;;;;;;;;;;;;;;;;;;5067379;28;19904;-56
2021/11/08 11:32:54;;;;;;;;;;;;;;;;;;5067546;28;19999;-56
2021/11/08 11:35:20;;;;;;;;;;;;;;;;;;5067475;28;19908;-56
2021/11/08 11:37:46;;;;;;;;;;;;;;;;;;5068198;28;19908;-56
2021/11/08 11:40:12;;;;;;;;;;;;;;;;;;5067207;28;19914;-56
2021/11/08 11:42:38;;;;;;;;;;;;;;;;;;5067238;28;20379;-56
2021/11/08 11:45:05;;;;;;;;;;;;;;;;;;5067487;28;19905;-56
2021/11/08 11:47:31;;;;;;;;;;;;;;;;;;5067454;28;20385;-56
2021/11/08 11:49:58;;;;;;;;;;;;;;;;;;5087947;28;20262;-56
2021/11/08 11:52:25;;;;;;;;;;;;;;;;;;5086293;28;20244;-56
2021/11/08 11:54:51;;;;;;;;;;;;;;;;;;5084195;28;20406;-56
2021/11/08 11:57:17;;;;;;;;;;;;;;;;;;5085005;28;19955;-56
2021/11/08 11:59:44;;;;;;;;;;;;;;;;;;5079859;28;19956;-56
2021/11/08 12:02:10;;;;;;;;;;;;;;;;;;5088898;28;20422;-56
2021/11/08 12:04:36;;;;;;;;;;;;;;;;;;5088890;28;20003;-56
2021/11/08 12:07:02;;;;;;;;;;;;;;;;;;5089224;28;19908;-57
2021/11/08 12:09:28;;;;;;;;;;;;;;;;;;5088702;28;19950;-57
2021/11/08 12:11:54;;;;;;;;;;;;;;;;;;5087851;28;20393;-56
2021/11/08 12:14:20;;;;;;;;;;;;;;;;;;5089027;28;19986;-56
2021/11/08 12:16:45;;;;;;;;;;;;;;;;;;5073154;28;20003;-56
2021/11/08 12:19:11;;;;;;;;;;;;;;;;;;5072324;28;19962;-56
2021/11/08 12:21:38;;;;;;;;;;;;;;;;;;5075656;28;19915;-57
2021/11/08 12:24:03;;;;;;;;;;;;;;;;;;5068263;28;19908;-57
2021/11/08 12:26:29;;;;;;;;;;;;;;;;;;5076409;28;19960;-57
2021/11/08 12:28:55;;;;;;;;;;;;;;;;;;5070013;28;19974;-56
2021/11/08 12:31:21;;;;;;;;;;;;;;;;;;5068118;28;19908;-57
2021/11/08 12:33:47;;;;;;;;;;;;;;;;;;5068227;28;19911;-56
2021/11/08 12:36:13;;;;;;;;;;;;;;;;;;5067712;28;19919;-56
2021/11/08 12:38:39;;;;;;;;;;;;;;;;;;5068061;28;19908;-56
2021/11/08 12:41:05;;;;;;;;;;;;;;;;;;5068766;28;19923;-56
2021/11/08 12:43:34;;;;;;;;;;;;;;;;;;5067516;28;19930;-56
2021/11/08 12:46:00;;;;;;;;;;;;;;;;;;5083844;28;20291;-57
2021/11/08 12:48:26;;;;;;;;;;;;;;;;;;5087888;28;19911;-57
2021/11/08 12:50:52;;;;;;;;;;;;;;;;;;5073804;28;19965;-56
2021/11/08 12:53:18;;;;;;;;;;;;;;;;;;5074343;28;19912;-57
2021/11/08 12:55:44;;;;;;;;;;;;;;;;;;5070520;28;20399;-57
2021/11/08 12:58:11;;;;;;;;;;;;;;;;;;5073504;28;19915;-57
2021/11/08 13:00:37;;;;;;;;;;;;;;;;;;5088336;28;19990;-57
2021/11/08 13:03:11;;;;;;;;;;;;;;;;;;5088370;28;20149;-57
2021/11/08 13:05:37;;;;;;;;;;;;;;;;;;5076551;28;19973;-56
2021/11/08 13:08:03;;;;;;;;;;;;;;;;;;5080021;28;19912;-57
2021/11/08 13:10:29;;;;;;;;;;;;;;;;;;5087910;28;19911;-57
2021/11/08 13:13:03;;;;;;;;;;;;;;;;;;5084223;28;19913;-56
2021/11/08 13:15:29;;;;;;;;;;;;;;;;;;5084522;28;20338;-57
2021/11/08 13:17:55;;;;;;;;;;;;;;;;;;5083736;28;19908;-57
2021/11/08 13:20:21;;;;;;;;;;;;;;;;;;5084026;28;19938;-57
2021/11/08 13:22:47;;;;;;;;;;;;;;;;;;5084689;28;19909;-57
2021/11/08 13:25:13;;;;;;;;;;;;;;;;;;5081469;28;19951;-57
2021/11/08 13:27:39;;;;;;;;;;;;;;;;;;5064240;28;19912;-57
2021/11/08 13:30:05;;;;;;;;;;;;;;;;;;5076514;28;19954;-56
2021/11/08 13:32:31;;;;;;;;;;;;;;;;;;5082781;28;19977;-57
2021/11/08 13:34:57;;;;;;;;;;;;;;;;;;5077283;28;19912;-57
2021/11/08 13:37:23;;;;;;;;;;;;;;;;;;5082717;28;19916;-57
2021/11/08 13:39:51;;;;;;;;;;;;;;;;;;5083167;28;19966;-56
2021/11/08 13:42:16;;;;;;;;;;;;;;;;;;5080090;28;19908;-57
2021/11/08 13:44:42;;;;;;;;;;;;;;;;;;5082089;28;19908;-57
2021/11/08 13:47:08;;;;;;;;;;;;;;;;;;5080631;28;20354;-57
2021/11/08 13:49:34;;;;;;;;;;;;;;;;;;5082050;28;19916;-57
2021/11/08 13:52:00;;;;;;;;;;;;;;;;;;5075049;28;19920;-57
2021/11/08 13:54:27;;;;;;;;;;;;;;;;;;5061293;28;19915;-57
2021/11/08 13:56:53;;;;;;;;;;;;;;;;;;5077375;28;20300;-57
2021/11/08 13:59:26;;;;;;;;;;;;;;;;;;5061822;28;19935;-57
2021/11/08 14:01:52;;;;;;;;;;;;;;;;;;5061953;28;19917;-58
2021/11/08 14:04:18;;;;;;;;;;;;;;;;;;5061774;28;19966;-57
2021/11/08 14:06:44;;;;;;;;;;;;;;;;;;5061720;28;19925;-57
2021/11/08 14:09:10;;;;;;;;;;;;;;;;;;5061010;28;20394;-57
2021/11/08 14:11:36;;;;;;;;;;;;;;;;;;5060234;28;19936;-57
2021/11/08 14:14:02;;;;;;;;;;;;;;;;;;5061265;28;19987;-57
2021/11/08 14:16:28;;;;;;;;;;;;;;;;;;5060851;28;19905;-57
2021/11/08 14:18:57;;;;;;;;;;;;;;;;;;5061287;28;20011;-57
2021/11/08 14:21:22;;;;;;;;;;;;;;;;;;5060669;28;19912;-57
2021/11/08 14:23:48;;;;;;;;;;;;;;;;;;5051534;28;19913;-57
2021/11/08 14:26:14;;;;;;;;;;;;;;;;;;5047166;28;20395;-57
2021/11/08 14:28:40;;;;;;;;;;;;;;;;;;5047729;28;19912;-57
2021/11/08 14:31:06;;;;;;;;;;;;;;;;;;5047426;28;19920;-57
2021/11/08 14:33:32;;;;;;;;;;;;;;;;;;5047549;28;19913;-57
2021/11/08 14:35:58;;;;;;;;;;;;;;;;;;5047378;28;20384;-57
2021/11/08 14:38:24;;;;;;;;;;;;;;;;;;5046965;28;19963;-57
2021/11/08 14:40:50;;;;;;;;;;;;;;;;;;5047906;28;20302;-57
2021/11/08 14:43:16;;;;;;;;;;;;;;;;;;5047102;28;19915;-57
2021/11/08 14:45:42;;;;;;;;;;;;;;;;;;5047448;28;19916;-58
2021/11/08 14:48:08;;;;;;;;;;;;;;;;;;5047729;28;20008;-58
2021/11/08 14:50:35;;;;;;;;;;;;;;;;;;5046872;28;20400;-57
2021/11/08 14:53:01;;;;;;;;;;;;;;;;;;5045675;28;19919;-57
2021/11/08 14:55:26;;;;;;;;;;;;;;;;;;5046633;28;20335;-57
2021/11/08 14:57:52;;;;;;;;;;;;;;;;;;5047879;28;19913;-57
2021/11/08 15:00:18;;;;;;;;;;;;;;;;;;5047402;28;19916;-57
2021/11/08 15:02:44;;;;;;;;;;;;;;;;;;5046593;28;19917;-57
2021/11/08 15:05:10;;;;;;;;;;;;;;;;;;5047067;28;20408;-57
2021/11/08 15:07:37;;;;;;;;;;;;;;;;;;5046433;28;19909;-57
2021/11/08 15:10:03;;;;;;;;;;;;;;;;;;5046711;28;19916;-57
2021/11/08 15:12:29;;;;;;;;;;;;;;;;;;5046721;28;19921;-57
2021/11/08 15:14:55;;;;;;;;;;;;;;;;;;5046964;28;19912;-56
2021/11/08 15:17:21;;;;;;;;;;;;;;;;;;5046061;28;19909;-57
2021/11/08 15:19:48;;;;;;;;;;;;;;;;;;5046270;28;20277;-57
2021/11/08 15:22:13;;;;;;;;;;;;;;;;;;5046270;28;19913;-57
2021/11/08 15:24:40;;;;;;;;;;;;;;;;;;5046499;28;20403;-57
2021/11/08 15:27:06;;;;;;;;;;;;;;;;;;5046601;28;20456;-57
2021/11/08 15:29:33;;;;;;;;;;;;;;;;;;5046279;28;20000;-57
2021/11/08 15:31:59;;;;;;;;;;;;;;;;;;5046416;28;20233;-57
2021/11/08 15:34:25;;;;;;;;;;;;;;;;;;5045324;28;20453;-58
2021/11/08 15:36:51;;;;;;;;;;;;;;;;;;5046917;28;19917;-58
2021/11/08 15:39:25;;;;;;;;;;;;;;;;;;5045955;28;19999;-57
2021/11/08 15:41:51;;;;;;;;;;;;;;;;;;5046679;28;19916;-57
2021/11/08 15:44:18;;;;;;;;;;;;;;;;;;5046179;28;19930;-57
2021/11/08 15:46:45;;;;;;;;;;;;;;;;;;5056296;28;20303;-57
2021/11/08 15:49:11;;;;;;;;;;;;;;;;;;5066928;28;20389;-57
2021/11/08 15:51:39;;;;;;;;;;;;;;;;;;5062929;28;20054;-58
2021/11/08 15:54:05;;;;;;;;;;;;;;;;;;5065878;28;19912;-58
2021/11/08 15:56:31;;;;;;;;;;;;;;;;;;5065700;28;19916;-57
2021/11/08 15:58:57;;;;;;;;;;;;;;;;;;5065985;28;19909;-57
2021/11/08 16:01:24;;;;;;;;;;;;;;;;;;5065345;28;19948;-57
2021/11/08 16:03:50;;;;;;;;;;;;;;;;;;5066317;28;19935;-57
2021/11/08 16:06:16;;;;;;;;;;;;;;;;;;5065490;28;19909;-57
2021/11/08 16:08:42;;;;;;;;;;;;;;;;;;5065821;28;19913;-58
2021/11/08 16:11:08;;;;;;;;;;;;;;;;;;5065203;28;19923;-57
2021/11/08 16:13:34;;;;;;;;;;;;;;;;;;5065273;28;20379;-58
2021/11/08 16:16:00;;;;;;;;;;;;;;;;;;5065810;28;19912;-57
2021/11/08 16:18:25;;;;;;;;;;;;;;;;;;5065114;28;20375;-57
2021/11/08 16:20:52;;;;;;;;;;;;;;;;;;5065661;28;19908;-57
2021/11/08 16:23:18;;;;;;;;;;;;;;;;;;5065537;28;19944;-57
2021/11/08 16:25:45;;;;;;;;;;;;;;;;;;5065390;28;19982;-57
2021/11/08 16:28:11;;;;;;;;;;;;;;;;;;5065317;28;19915;-57
2021/11/08 16:30:37;;;;;;;;;;;;;;;;;;5065536;28;19909;-57
2021/11/08 16:33:03;;;;;;;;;;;;;;;;;;5064356;28;19966;-57
2021/11/08 16:35:30;;;;;;;;;;;;;;;;;;5063515;28;20303;-57
2021/11/08 16:37:56;;;;;;;;;;;;;;;;;;5065352;28;19913;-57
2021/11/08 16:40:23;;;;;;;;;;;;;;;;;;5065433;28;19962;-58
2021/11/08 16:42:52;;;;;;;;;;;;;;;;;;5065493;28;19909;-57
2021/11/08 16:45:19;;;;;;;;;;;;;;;;;;5065117;28;20350;-57
2021/11/08 16:47:45;;;;;;;;;;;;;;;;;;5064853;28;20462;-57
2021/11/08 16:50:12;;;;;;;;;;;;;;;;;;5065006;28;19951;-57
2021/11/08 16:52:38;;;;;;;;;;;;;;;;;;5063543;28;19912;-57
2021/11/08 16:55:06;;;;;;;;;;;;;;;;;;5064674;28;19958;-57
2021/11/08 16:57:32;;;;;;;;;;;;;;;;;;5065018;28;19983;-58
2021/11/08 16:59:58;;;;;;;;;;;;;;;;;;5065176;28;20155;-57
2021/11/08 17:02:24;;;;;;;;;;;;;;;;;;5064337;28;19944;-57
2021/11/08 17:04:52;;;;;;;;;;;;;;;;;;5065776;28;19939;-57
2021/11/08 17:07:19;;;;;;;;;;;;;;;;;;5065253;28;19915;-57
2021/11/08 17:10:01;;;;;;;;;;;;;;;;;;5064728;28;20349;-57
2021/11/08 17:15:11;;;;;;;;;;;;;;;;;;5064863;28;19987;-57
2021/11/08 17:17:37;;;;;;;;;;;;;;;;;;5064758;28;19920;-57
2021/11/08 17:20:03;;;;;;;;;;;;;;;;;;5063221;28;19909;-57
2021/11/08 17:22:30;;;;;;;;;;;;;;;;;;5064635;28;19963;-57
2021/11/08 17:24:56;;;;;;;;;;;;;;;;;;5064495;28;20341;-57
2021/11/08 17:27:22;;;;;;;;;;;;;;;;;;5064866;28;19909;-57
2021/11/08 17:29:48;;;;;;;;;;;;;;;;;;5065043;28;19999;-57
2021/11/08 17:32:15;;;;;;;;;;;;;;;;;;5064065;28;19920;-57
2021/11/08 17:34:43;;;;;;;;;;;;;;;;;;5064714;28;19913;-57
2021/11/08 17:37:09;;;;;;;;;;;;;;;;;;5064708;28;19912;-57
2021/11/08 17:39:36;;;;;;;;;;;;;;;;;;5064611;28;20395;-57
2021/11/08 17:42:02;;;;;;;;;;;;;;;;;;5064351;28;20397;-57
2021/11/08 17:44:28;;;;;;;;;;;;;;;;;;5064559;28;20030;-57
2021/11/08 17:46:54;;;;;;;;;;;;;;;;;;5064621;28;20375;-57
2021/11/08 17:49:20;;;;;;;;;;;;;;;;;;5064797;28;19928;-57
2021/11/08 17:51:46;;;;;;;;;;;;;;;;;;5052181;28;19920;-58
2021/11/08 17:54:12;;;;;;;;;;;;;;;;;;5051714;28;19919;-57
2021/11/08 17:56:38;;;;;;;;;;;;;;;;;;5065414;28;20014;-57
2021/11/08 17:59:04;;;;;;;;;;;;;;;;;;5066225;28;19920;-58
2021/11/08 18:01:32;;;;;;;;;;;;;;;;;;5067443;28;20403;-57
2021/11/08 18:03:58;;;;;;;;;;;;;;;;;;5067764;28;19923;-58
2021/11/08 18:06:24;;;;;;;;;;;;;;;;;;5066992;28;19916;-57
2021/11/08 18:08:50;;;;;;;;;;;;;;;;;;5068008;28;20342;-57
2021/11/08 18:11:16;;;;;;;;;;;;;;;;;;5067364;28;19928;-57
2021/11/08 18:13:42;;;;;;;;;;;;;;;;;;5067476;28;20402;-58
2021/11/08 18:16:08;;;;;;;;;;;;;;;;;;5067435;28;20398;-57
2021/11/08 18:18:35;;;;;;;;;;;;;;;;;;5067321;28;19912;-58
2021/11/08 18:21:14;;;;;;;;;;;;;;;;;;5068975;28;19916;-57
2021/11/08 18:28:33;;;;;;;;;;;;;;;;;;5066610;28;19912;-57
2021/11/08 18:31:00;;;;;;;;;;;;;;;;;;5066510;28;20007;-57
2021/11/08 18:33:26;;;;;;;;;;;;;;;;;;5054555;28;19970;-57
2021/11/08 18:35:53;;;;;;;;;;;;;;;;;;5065821;28;19916;-57
2021/11/08 18:38:19;;;;;;;;;;;;;;;;;;5066815;28;20446;-56